Station Historical Data
Daily Summary for June 19, 2017 Units:  Both    English   Metric
« Previous Day
Next Day »
Daily Weekly Monthly Yearly Custom
  High: Low: Average:
Temperature: 78.8 °F /  26 °C 66.6 °F /  19.2 °C 71.6 °F /  22 °C
Dew Point: 66.3 °F /  19.1 °C 58.8 °F /  14.9 °C 62.5 °F /  16.9 °C
Humidity: 92% 52% 74%
Wind Speed: 14.0mph /  22.5km/h - 4.3mph /  6.9km/h
Wind Gust: 22.0mph /  35.4km/h - -
Wind- - SW
Pressure: 29.78 in /  1008.4 hPa 29.65 in /  1003.9 hPa -
Precipitation: 0.00 in /  0 mm    
Historical Graphs
 
 
Tabular Data for June 19, 2017
Time Temperature Dew Point Pressure Wind Wind Speed Wind Gust Humidity Rainfall Rate (Hourly)
00:04 70.2 °F /  21.2 °C 66.1 °F /  18.9 °C 29.65in /  1003.9hPa West 3.0mph /  4.8km/h 6.0mph /  9.7km/h 87% 0.00in /  0mm
00:09 70.1 °F /  21.2 °C 66.0 °F /  18.9 °C 29.66in /  1004.3hPa West 2.0mph /  3.2km/h 4.0mph /  6.4km/h 87% 0.00in /  0mm
00:14 70.0 °F /  21.1 °C 66.3 °F /  19.1 °C 29.66in /  1004.3hPa WSW 3.0mph /  4.8km/h 6.0mph /  9.7km/h 88% 0.00in /  0mm
00:19 70.0 °F /  21.1 °C 66.0 °F /  18.9 °C 29.66in /  1004.3hPa WNW 3.0mph /  4.8km/h 8.0mph /  12.9km/h 87% 0.00in /  0mm
00:29 69.9 °F /  21.1 °C 66.2 °F /  19 °C 29.66in /  1004.3hPa West 3.0mph /  4.8km/h 7.0mph /  11.3km/h 88% 0.00in /  0mm
00:34 69.8 °F /  21 °C 66.1 °F /  18.9 °C 29.67in /  1004.6hPa West 1.0mph /  1.6km/h 8.0mph /  12.9km/h 88% 0.00in /  0mm
00:39 69.7 °F /  20.9 °C 66.0 °F /  18.9 °C 29.67in /  1004.6hPa WSW 1.0mph /  1.6km/h 6.0mph /  9.7km/h 88% 0.00in /  0mm
00:44 69.7 °F /  20.9 °C 66.0 °F /  18.9 °C 29.66in /  1004.3hPa WSW 2.0mph /  3.2km/h 4.0mph /  6.4km/h 88% 0.00in /  0mm
00:49 69.6 °F /  20.9 °C 65.9 °F /  18.8 °C 29.67in /  1004.6hPa Calm   5.0mph /  8km/h 88% 0.00in /  0mm
00:54 69.6 °F /  20.9 °C 65.9 °F /  18.8 °C 29.67in /  1004.6hPa WSW 3.0mph /  4.8km/h 3.0mph /  4.8km/h 88% 0.00in /  0mm
00:59 69.5 °F /  20.8 °C 65.8 °F /  18.8 °C 29.67in /  1004.6hPa WSW 1.0mph /  1.6km/h 3.0mph /  4.8km/h 88% 0.00in /  0mm
01:04 69.5 °F /  20.8 °C 65.8 °F /  18.8 °C 29.67in /  1004.6hPa SW 1.0mph /  1.6km/h 3.0mph /  4.8km/h 88% 0.00in /  0mm
01:09 69.5 °F /  20.8 °C 66.1 °F /  18.9 °C 29.67in /  1004.6hPa SW 1.0mph /  1.6km/h 4.0mph /  6.4km/h 89% 0.00in /  0mm
01:14 69.4 °F /  20.8 °C 66.0 °F /  18.9 °C 29.66in /  1004.3hPa SW 1.0mph /  1.6km/h 4.0mph /  6.4km/h 89% 0.00in /  0mm
01:19 69.4 °F /  20.8 °C 66.0 °F /  18.9 °C 29.67in /  1004.6hPa SW 2.0mph /  3.2km/h 5.0mph /  8km/h 89% 0.00in /  0mm
01:24 69.5 °F /  20.8 °C 66.1 °F /  18.9 °C 29.67in /  1004.6hPa SSW 3.0mph /  4.8km/h 5.0mph /  8km/h 89% 0.00in /  0mm
01:29 69.5 °F /  20.8 °C 66.1 °F /  18.9 °C 29.68in /  1005hPa SW 2.0mph /  3.2km/h 5.0mph /  8km/h 89% 0.00in /  0mm
01:34 69.5 °F /  20.8 °C 65.8 °F /  18.8 °C 29.68in /  1005hPa SW 2.0mph /  3.2km/h 5.0mph /  8km/h 88% 0.00in /  0mm
01:39 69.6 °F /  20.9 °C 65.9 °F /  18.8 °C 29.68in /  1005hPa WSW 1.0mph /  1.6km/h 6.0mph /  9.7km/h 88% 0.00in /  0mm
01:40 69.6 °F /  20.9 °C 65.9 °F /  18.8 °C 29.68in /  1005hPa SW 2.0mph /  3.2km/h 6.0mph /  9.7km/h 88% 0.00in /  0mm
01:44 69.7 °F /  20.9 °C 66.0 °F /  18.9 °C 29.68in /  1005hPa WSW 3.0mph /  4.8km/h 6.0mph /  9.7km/h 88% 0.00in /  0mm
01:49 69.6 °F /  20.9 °C 65.9 °F /  18.8 °C 29.68in /  1005hPa SW 4.0mph /  6.4km/h 5.0mph /  8km/h 88% 0.00in /  0mm
01:54 69.6 °F /  20.9 °C 65.9 °F /  18.8 °C 29.68in /  1005hPa SW 3.0mph /  4.8km/h 6.0mph /  9.7km/h 88% 0.00in /  0mm
01:59 69.5 °F /  20.8 °C 65.8 °F /  18.8 °C 29.67in /  1004.6hPa SW 2.0mph /  3.2km/h 6.0mph /  9.7km/h 88% 0.00in /  0mm
02:04 69.5 °F /  20.8 °C 65.8 °F /  18.8 °C 29.67in /  1004.6hPa SW 2.0mph /  3.2km/h 6.0mph /  9.7km/h 88% 0.00in /  0mm
02:09 69.5 °F /  20.8 °C 65.8 °F /  18.8 °C 29.67in /  1004.6hPa WSW 1.0mph /  1.6km/h 3.0mph /  4.8km/h 88% 0.00in /  0mm
02:14 69.5 °F /  20.8 °C 65.8 °F /  18.8 °C 29.68in /  1005hPa WSW 1.0mph /  1.6km/h 3.0mph /  4.8km/h 88% 0.00in /  0mm
02:19 69.5 °F /  20.8 °C 65.8 °F /  18.8 °C 29.67in /  1004.6hPa SW 2.0mph /  3.2km/h 6.0mph /  9.7km/h 88% 0.00in /  0mm
02:24 69.5 °F /  20.8 °C 65.8 °F /  18.8 °C 29.67in /  1004.6hPa SW 2.0mph /  3.2km/h 6.0mph /  9.7km/h 88% 0.00in /  0mm
02:29 69.5 °F /  20.8 °C 65.8 °F /  18.8 °C 29.67in /  1004.6hPa SSW 3.0mph /  4.8km/h 6.0mph /  9.7km/h 88% 0.00in /  0mm
02:34 69.5 °F /  20.8 °C 65.8 °F /  18.8 °C 29.67in /  1004.6hPa SW 2.0mph /  3.2km/h 6.0mph /  9.7km/h 88% 0.00in /  0mm
02:39 69.5 °F /  20.8 °C 65.8 °F /  18.8 °C 29.67in /  1004.6hPa SW 2.0mph /  3.2km/h 7.0mph /  11.3km/h 88% 0.00in /  0mm
02:44 69.5 °F /  20.8 °C 65.8 °F /  18.8 °C 29.67in /  1004.6hPa SW 4.0mph /  6.4km/h 7.0mph /  11.3km/h 88% 0.00in /  0mm
02:49 69.5 °F /  20.8 °C 65.8 °F /  18.8 °C 29.67in /  1004.6hPa SW 1.0mph /  1.6km/h 6.0mph /  9.7km/h 88% 0.00in /  0mm
02:54 69.5 °F /  20.8 °C 65.8 °F /  18.8 °C 29.67in /  1004.6hPa WSW 3.0mph /  4.8km/h 4.0mph /  6.4km/h 88% 0.00in /  0mm
02:59 69.5 °F /  20.8 °C 66.1 °F /  18.9 °C 29.67in /  1004.6hPa SW 2.0mph /  3.2km/h 5.0mph /  8km/h 89% 0.00in /  0mm
03:04 69.5 °F /  20.8 °C 66.1 °F /  18.9 °C 29.68in /  1005hPa SW 2.0mph /  3.2km/h 5.0mph /  8km/h 89% 0.00in /  0mm
03:09 69.5 °F /  20.8 °C 66.1 °F /  18.9 °C 29.67in /  1004.6hPa SW 2.0mph /  3.2km/h 5.0mph /  8km/h 89% 0.00in /  0mm
03:14 69.4 °F /  20.8 °C 66.0 °F /  18.9 °C 29.67in /  1004.6hPa SW 2.0mph /  3.2km/h 7.0mph /  11.3km/h 89% 0.00in /  0mm
03:19 69.5 °F /  20.8 °C 66.1 °F /  18.9 °C 29.67in /  1004.6hPa SSW 3.0mph /  4.8km/h 8.0mph /  12.9km/h 89% 0.00in /  0mm
03:24 69.5 °F /  20.8 °C 66.1 °F /  18.9 °C 29.68in /  1005hPa WSW 2.0mph /  3.2km/h 5.0mph /  8km/h 89% 0.00in /  0mm
03:29 69.5 °F /  20.8 °C 66.1 °F /  18.9 °C 29.67in /  1004.6hPa SW 3.0mph /  4.8km/h 6.0mph /  9.7km/h 89% 0.00in /  0mm
03:34 69.5 °F /  20.8 °C 66.1 °F /  18.9 °C 29.68in /  1005hPa SW 4.0mph /  6.4km/h 8.0mph /  12.9km/h 89% 0.00in /  0mm
03:39 69.5 °F /  20.8 °C 66.1 °F /  18.9 °C 29.67in /  1004.6hPa SW 3.0mph /  4.8km/h 8.0mph /  12.9km/h 89% 0.00in /  0mm
03:44 69.5 °F /  20.8 °C 66.1 °F /  18.9 °C 29.68in /  1005hPa SW 3.0mph /  4.8km/h 8.0mph /  12.9km/h 89% 0.00in /  0mm
03:49 69.5 °F /  20.8 °C 66.1 °F /  18.9 °C 29.68in /  1005hPa SW 3.0mph /  4.8km/h 7.0mph /  11.3km/h 89% 0.00in /  0mm
03:54 69.5 °F /  20.8 °C 66.1 °F /  18.9 °C 29.68in /  1005hPa WSW 2.0mph /  3.2km/h 6.0mph /  9.7km/h 89% 0.00in /  0mm
03:59 69.4 °F /  20.8 °C 66.0 °F /  18.9 °C 29.68in /  1005hPa WSW 2.0mph /  3.2km/h 4.0mph /  6.4km/h 89% 0.00in /  0mm
04:04 69.3 °F /  20.7 °C 65.9 °F /  18.8 °C 29.68in /  1005hPa WSW 2.0mph /  3.2km/h 4.0mph /  6.4km/h 89% 0.00in /  0mm
04:09 69.2 °F /  20.7 °C 65.8 °F /  18.8 °C 29.68in /  1005hPa SW 2.0mph /  3.2km/h 4.0mph /  6.4km/h 89% 0.00in /  0mm
04:14 69.2 °F /  20.7 °C 65.8 °F /  18.8 °C 29.68in /  1005hPa South 2.0mph /  3.2km/h 6.0mph /  9.7km/h 89% 0.00in /  0mm
04:19 69.0 °F /  20.6 °C 65.9 °F /  18.8 °C 29.68in /  1005hPa SW 3.0mph /  4.8km/h 5.0mph /  8km/h 90% 0.00in /  0mm
04:24 68.9 °F /  20.5 °C 65.8 °F /  18.8 °C 29.68in /  1005hPa SW 2.0mph /  3.2km/h 4.0mph /  6.4km/h 90% 0.00in /  0mm
04:29 68.7 °F /  20.4 °C 65.6 °F /  18.7 °C 29.68in /  1005hPa SW 1.0mph /  1.6km/h 5.0mph /  8km/h 90% 0.00in /  0mm
04:34 68.7 °F /  20.4 °C 65.6 °F /  18.7 °C 29.69in /  1005.3hPa SW 2.0mph /  3.2km/h 6.0mph /  9.7km/h 90% 0.00in /  0mm
04:39 68.7 °F /  20.4 °C 65.6 °F /  18.7 °C 29.69in /  1005.3hPa SW 3.0mph /  4.8km/h 6.0mph /  9.7km/h 90% 0.00in /  0mm
04:44 68.7 °F /  20.4 °C 65.6 °F /  18.7 °C 29.69in /  1005.3hPa SW 3.0mph /  4.8km/h 6.0mph /  9.7km/h 90% 0.00in /  0mm
04:49 68.6 °F /  20.3 °C 65.5 °F /  18.6 °C 29.69in /  1005.3hPa SW 2.0mph /  3.2km/h 6.0mph /  9.7km/h 90% 0.00in /  0mm
04:54 68.4 °F /  20.2 °C 65.4 °F /  18.6 °C 29.70in /  1005.6hPa WSW 2.0mph /  3.2km/h 5.0mph /  8km/h 90% 0.00in /  0mm
04:59 68.3 °F /  20.2 °C 65.6 °F /  18.7 °C 29.70in /  1005.6hPa SW 3.0mph /  4.8km/h 4.0mph /  6.4km/h 91% 0.00in /  0mm
05:04 68.2 °F /  20.1 °C 65.5 °F /  18.6 °C 29.70in /  1005.6hPa WSW 2.0mph /  3.2km/h 5.0mph /  8km/h 91% 0.00in /  0mm
05:09 68.0 °F /  20 °C 65.3 °F /  18.5 °C 29.69in /  1005.3hPa Calm   3.0mph /  4.8km/h 91% 0.00in /  0mm
05:14 67.9 °F /  19.9 °C 65.2 °F /  18.4 °C 29.70in /  1005.6hPa WSW 1.0mph /  1.6km/h 4.0mph /  6.4km/h 91% 0.00in /  0mm
05:19 67.7 °F /  19.8 °C 65.0 °F /  18.3 °C 29.70in /  1005.6hPa Calm   3.0mph /  4.8km/h 91% 0.00in /  0mm
05:24 67.7 °F /  19.8 °C 65.0 °F /  18.3 °C 29.71in /  1006hPa SSW 2.0mph /  3.2km/h 3.0mph /  4.8km/h 91% 0.00in /  0mm
05:29 67.5 °F /  19.7 °C 64.8 °F /  18.2 °C 29.70in /  1005.6hPa Calm   3.0mph /  4.8km/h 91% 0.00in /  0mm
05:34 67.4 °F /  19.7 °C 64.7 °F /  18.2 °C 29.71in /  1006hPa SSW 1.0mph /  1.6km/h 3.0mph /  4.8km/h 91% 0.00in /  0mm
05:39 67.3 °F /  19.6 °C 64.9 °F /  18.3 °C 29.71in /  1006hPa SW 1.0mph /  1.6km/h 4.0mph /  6.4km/h 92% 0.00in /  0mm
05:44 67.4 °F /  19.7 °C 65.0 °F /  18.3 °C 29.72in /  1006.3hPa SW 1.0mph /  1.6km/h 5.0mph /  8km/h 92% 0.00in /  0mm
05:49 67.4 °F /  19.7 °C 65.0 °F /  18.3 °C 29.72in /  1006.3hPa SW 2.0mph /  3.2km/h 5.0mph /  8km/h 92% 0.00in /  0mm
05:54 67.4 °F /  19.7 °C 65.0 °F /  18.3 °C 29.72in /  1006.3hPa SW 1.0mph /  1.6km/h 3.0mph /  4.8km/h 92% 0.00in /  0mm
05:59 67.4 °F /  19.7 °C 65.0 °F /  18.3 °C 29.71in /  1006hPa SSW 2.0mph /  3.2km/h 4.0mph /  6.4km/h 92% 0.00in /  0mm
06:04 67.4 °F /  19.7 °C 65.0 °F /  18.3 °C 29.72in /  1006.3hPa Calm   4.0mph /  6.4km/h 92% 0.00in /  0mm
06:09 67.4 °F /  19.7 °C 65.0 °F /  18.3 °C 29.72in /  1006.3hPa Calm   3.0mph /  4.8km/h 92% 0.00in /  0mm
06:14 67.4 °F /  19.7 °C 65.0 °F /  18.3 °C 29.72in /  1006.3hPa SW 1.0mph /  1.6km/h 3.0mph /  4.8km/h 92% 0.00in /  0mm
06:19 67.4 °F /  19.7 °C 65.0 °F /  18.3 °C 29.72in /  1006.3hPa Calm   3.0mph /  4.8km/h 92% 0.00in /  0mm
06:24 67.4 °F /  19.7 °C 65.0 °F /  18.3 °C 29.73in /  1006.7hPa SW 1.0mph /  1.6km/h 4.0mph /  6.4km/h 92% 0.00in /  0mm
06:29 67.5 °F /  19.7 °C 65.1 °F /  18.4 °C 29.73in /  1006.7hPa Calm   4.0mph /  6.4km/h 92% 0.00in /  0mm
06:34 67.4 °F /  19.7 °C 64.7 °F /  18.2 °C 29.72in /  1006.3hPa WSW 1.0mph /  1.6km/h 4.0mph /  6.4km/h 91% 0.00in /  0mm
06:39 67.4 °F /  19.7 °C 64.7 °F /  18.2 °C 29.72in /  1006.3hPa Calm     91% 0.00in /  0mm
06:44 67.4 °F /  19.7 °C 64.7 °F /  18.2 °C 29.73in /  1006.7hPa Calm     91% 0.00in /  0mm
06:49 67.4 °F /  19.7 °C 64.7 °F /  18.2 °C 29.72in /  1006.3hPa Calm     91% 0.00in /  0mm
06:54 67.6 °F /  19.8 °C 64.6 °F /  18.1 °C 29.72in /  1006.3hPa Calm     90% 0.00in /  0mm
06:59 67.7 °F /  19.8 °C 64.3 °F /  17.9 °C 29.72in /  1006.3hPa Calm     89% 0.00in /  0mm
07:04 67.9 °F /  19.9 °C 64.2 °F /  17.9 °C 29.72in /  1006.3hPa Calm     88% 0.00in /  0mm
07:09 68.1 °F /  20.1 °C 64.4 °F /  18 °C 29.73in /  1006.7hPa Calm     88% 0.00in /  0mm
07:14 68.3 °F /  20.2 °C 64.3 °F /  17.9 °C 29.74in /  1007hPa SW 1.0mph /  1.6km/h 4.0mph /  6.4km/h 87% 0.00in /  0mm
07:19 68.5 °F /  20.3 °C 64.5 °F /  18.1 °C 29.74in /  1007hPa Calm   4.0mph /  6.4km/h 87% 0.00in /  0mm
07:24 68.6 °F /  20.3 °C 64.2 °F /  17.9 °C 29.74in /  1007hPa SW 1.0mph /  1.6km/h 4.0mph /  6.4km/h 86% 0.00in /  0mm
07:29 68.7 °F /  20.4 °C 64.3 °F /  17.9 °C 29.74in /  1007hPa SSW 2.0mph /  3.2km/h 4.0mph /  6.4km/h 86% 0.00in /  0mm
07:34 68.8 °F /  20.4 °C 64.1 °F /  17.8 °C 29.73in /  1006.7hPa SSW 2.0mph /  3.2km/h 5.0mph /  8km/h 85% 0.00in /  0mm
07:39 68.8 °F /  20.4 °C 64.1 °F /  17.8 °C 29.73in /  1006.7hPa SSW 1.0mph /  1.6km/h 5.0mph /  8km/h 85% 0.00in /  0mm
07:44 68.8 °F /  20.4 °C 64.1 °F /  17.8 °C 29.73in /  1006.7hPa Calm   4.0mph /  6.4km/h 85% 0.00in /  0mm
07:49 68.9 °F /  20.5 °C 64.2 °F /  17.9 °C 29.73in /  1006.7hPa South 3.0mph /  4.8km/h 3.0mph /  4.8km/h 85% 0.00in /  0mm
07:54 68.9 °F /  20.5 °C 64.2 °F /  17.9 °C 29.74in /  1007hPa SSW 1.0mph /  1.6km/h 3.0mph /  4.8km/h 85% 0.00in /  0mm
07:59 69.0 °F /  20.6 °C 64.0 °F /  17.8 °C 29.74in /  1007hPa SW 4.0mph /  6.4km/h 4.0mph /  6.4km/h 84% 0.00in /  0mm
08:04 69.1 °F /  20.6 °C 64.1 °F /  17.8 °C 29.74in /  1007hPa SW 2.0mph /  3.2km/h 4.0mph /  6.4km/h 84% 0.00in /  0mm
08:09 69.4 °F /  20.8 °C 63.7 °F /  17.6 °C 29.74in /  1007hPa WSW 2.0mph /  3.2km/h 5.0mph /  8km/h 82% 0.00in /  0mm
08:14 69.8 °F /  21 °C 64.1 °F /  17.8 °C 29.74in /  1007hPa WSW 2.0mph /  3.2km/h 5.0mph /  8km/h 82% 0.00in /  0mm
08:19 69.6 °F /  20.9 °C 63.2 °F /  17.3 °C 29.74in /  1007hPa WSW 2.0mph /  3.2km/h 6.0mph /  9.7km/h 80% 0.00in /  0mm
08:24 70.3 °F /  21.3 °C 64.2 °F /  17.9 °C 29.74in /  1007hPa WSW 4.0mph /  6.4km/h 7.0mph /  11.3km/h 81% 0.00in /  0mm
08:29 71.0 °F /  21.7 °C 64.9 °F /  18.3 °C 29.74in /  1007hPa WSW 3.0mph /  4.8km/h 7.0mph /  11.3km/h 81% 0.00in /  0mm
08:34 71.2 °F /  21.8 °C 64.7 °F /  18.2 °C 29.74in /  1007hPa WSW 4.0mph /  6.4km/h 8.0mph /  12.9km/h 80% 0.00in /  0mm
08:39 71.5 °F /  21.9 °C 64.3 °F /  17.9 °C 29.74in /  1007hPa WSW 5.0mph /  8km/h 7.0mph /  11.3km/h 78% 0.00in /  0mm
08:44 71.9 °F /  22.2 °C 64.3 °F /  17.9 °C 29.75in /  1007.3hPa WSW 3.0mph /  4.8km/h 9.0mph /  14.5km/h 77% 0.00in /  0mm
08:49 72.1 °F /  22.3 °C 64.5 °F /  18.1 °C 29.75in /  1007.3hPa WSW 4.0mph /  6.4km/h 9.0mph /  14.5km/h 77% 0.00in /  0mm
08:54 72.7 °F /  22.6 °C 64.7 °F /  18.2 °C 29.75in /  1007.3hPa SW 4.0mph /  6.4km/h 8.0mph /  12.9km/h 76% 0.00in /  0mm
08:59 72.7 °F /  22.6 °C 63.9 °F /  17.7 °C 29.75in /  1007.3hPa SW 4.0mph /  6.4km/h 10.0mph /  16.1km/h 74% 0.00in /  0mm
09:04 72.6 °F /  22.6 °C 63.1 °F /  17.3 °C 29.75in /  1007.3hPa SW 5.0mph /  8km/h 10.0mph /  16.1km/h 72% 0.00in /  0mm
09:09 72.8 °F /  22.7 °C 63.2 °F /  17.3 °C 29.74in /  1007hPa WSW 4.0mph /  6.4km/h 11.0mph /  17.7km/h 72% 0.00in /  0mm
09:14 72.9 °F /  22.7 °C 62.5 °F /  16.9 °C 29.75in /  1007.3hPa SW 7.0mph /  11.3km/h 11.0mph /  17.7km/h 70% 0.00in /  0mm
09:19 73.0 °F /  22.8 °C 62.6 °F /  17 °C 29.74in /  1007hPa South 6.0mph /  9.7km/h 9.0mph /  14.5km/h 70% 0.00in /  0mm
09:24 72.5 °F /  22.5 °C 62.2 °F /  16.8 °C 29.74in /  1007hPa SW 5.0mph /  8km/h 9.0mph /  14.5km/h 70% 0.00in /  0mm
09:29 72.9 °F /  22.7 °C 62.9 °F /  17.2 °C 29.75in /  1007.3hPa SW 5.0mph /  8km/h 9.0mph /  14.5km/h 71% 0.00in /  0mm
09:34 73.4 °F /  23 °C 61.8 °F /  16.6 °C 29.74in /  1007hPa SW 5.0mph /  8km/h 9.0mph /  14.5km/h 67% 0.00in /  0mm
09:39 73.8 °F /  23.2 °C 62.2 °F /  16.8 °C 29.74in /  1007hPa SW 5.0mph /  8km/h 9.0mph /  14.5km/h 67% 0.00in /  0mm
09:44 74.4 °F /  23.6 °C 62.3 °F /  16.8 °C 29.74in /  1007hPa WSW 3.0mph /  4.8km/h 10.0mph /  16.1km/h 66% 0.00in /  0mm
09:49 74.5 °F /  23.6 °C 62.0 °F /  16.7 °C 29.75in /  1007.3hPa SW 7.0mph /  11.3km/h 8.0mph /  12.9km/h 65% 0.00in /  0mm
09:54 74.2 °F /  23.4 °C 61.7 °F /  16.5 °C 29.75in /  1007.3hPa SW 5.0mph /  8km/h 12.0mph /  19.3km/h 65% 0.00in /  0mm
09:59 73.7 °F /  23.2 °C 61.6 °F /  16.4 °C 29.75in /  1007.3hPa SSW 3.0mph /  4.8km/h 10.0mph /  16.1km/h 66% 0.00in /  0mm
10:04 74.0 °F /  23.3 °C 61.9 °F /  16.6 °C 29.75in /  1007.3hPa West 5.0mph /  8km/h 12.0mph /  19.3km/h 66% 0.00in /  0mm
10:09 74.0 °F /  23.3 °C 61.5 °F /  16.4 °C 29.75in /  1007.3hPa SW 7.0mph /  11.3km/h 11.0mph /  17.7km/h 65% 0.00in /  0mm
10:14 73.5 °F /  23.1 °C 61.0 °F /  16.1 °C 29.75in /  1007.3hPa West 5.0mph /  8km/h 9.0mph /  14.5km/h 65% 0.00in /  0mm
10:19 73.1 °F /  22.8 °C 61.9 °F /  16.6 °C 29.75in /  1007.3hPa SSW 7.0mph /  11.3km/h 11.0mph /  17.7km/h 68% 0.00in /  0mm
10:24 73.1 °F /  22.8 °C 62.3 °F /  16.8 °C 29.75in /  1007.3hPa SW 5.0mph /  8km/h 11.0mph /  17.7km/h 69% 0.00in /  0mm
10:29 73.8 °F /  23.2 °C 62.2 °F /  16.8 °C 29.75in /  1007.3hPa SW 5.0mph /  8km/h 11.0mph /  17.7km/h 67% 0.00in /  0mm
10:34 74.9 °F /  23.8 °C 62.3 °F /  16.8 °C 29.75in /  1007.3hPa SW 4.0mph /  6.4km/h 10.0mph /  16.1km/h 65% 0.00in /  0mm
10:39 75.0 °F /  23.9 °C 62.0 °F /  16.7 °C 29.75in /  1007.3hPa WSW 4.0mph /  6.4km/h 8.0mph /  12.9km/h 64% 0.00in /  0mm
10:44 74.1 °F /  23.4 °C 60.2 °F /  15.7 °C 29.75in /  1007.3hPa West 5.0mph /  8km/h 11.0mph /  17.7km/h 62% 0.00in /  0mm
10:49 73.7 °F /  23.2 °C 61.2 °F /  16.2 °C 29.75in /  1007.3hPa West 4.0mph /  6.4km/h 11.0mph /  17.7km/h 65% 0.00in /  0mm
10:54 74.4 °F /  23.6 °C 61.9 °F /  16.6 °C 29.75in /  1007.3hPa WSW 5.0mph /  8km/h 11.0mph /  17.7km/h 65% 0.00in /  0mm
10:59 74.4 °F /  23.6 °C 61.9 °F /  16.6 °C 29.75in /  1007.3hPa WSW 5.0mph /  8km/h 13.0mph /  20.9km/h 65% 0.00in /  0mm
11:04 74.3 °F /  23.5 °C 61.8 °F /  16.6 °C 29.75in /  1007.3hPa West 4.0mph /  6.4km/h 13.0mph /  20.9km/h 65% 0.00in /  0mm
11:09 74.5 °F /  23.6 °C 61.1 °F /  16.2 °C 29.75in /  1007.3hPa SSW 6.0mph /  9.7km/h 9.0mph /  14.5km/h 63% 0.00in /  0mm
11:14 74.5 °F /  23.6 °C 61.1 °F /  16.2 °C 29.75in /  1007.3hPa SW 5.0mph /  8km/h 9.0mph /  14.5km/h 63% 0.00in /  0mm
11:19 75.4 °F /  24.1 °C 62.4 °F /  16.9 °C 29.75in /  1007.3hPa SW 10.0mph /  16.1km/h 13.0mph /  20.9km/h 64% 0.00in /  0mm
11:24 75.7 °F /  24.3 °C 62.2 °F /  16.8 °C 29.75in /  1007.3hPa WSW 6.0mph /  9.7km/h 13.0mph /  20.9km/h 63% 0.00in /  0mm
11:29 76.3 °F /  24.6 °C 62.3 °F /  16.8 °C 29.75in /  1007.3hPa SW 5.0mph /  8km/h 10.0mph /  16.1km/h 62% 0.00in /  0mm
11:34 76.1 °F /  24.5 °C 60.2 °F /  15.7 °C 29.75in /  1007.3hPa SW 6.0mph /  9.7km/h 10.0mph /  16.1km/h 58% 0.00in /  0mm
11:39 76.0 °F /  24.4 °C 61.1 °F /  16.2 °C 29.75in /  1007.3hPa West 5.0mph /  8km/h 12.0mph /  19.3km/h 60% 0.00in /  0mm
11:44 76.1 °F /  24.5 °C 59.8 °F /  15.4 °C 29.75in /  1007.3hPa SW 5.0mph /  8km/h 10.0mph /  16.1km/h 57% 0.00in /  0mm
11:49 76.6 °F /  24.8 °C 60.7 °F /  15.9 °C 29.75in /  1007.3hPa SW 6.0mph /  9.7km/h 11.0mph /  17.7km/h 58% 0.00in /  0mm
11:54 76.6 °F /  24.8 °C 62.6 °F /  17 °C 29.75in /  1007.3hPa SW 5.0mph /  8km/h 11.0mph /  17.7km/h 62% 0.00in /  0mm
11:59 77.2 °F /  25.1 °C 61.3 °F /  16.3 °C 29.75in /  1007.3hPa SW 5.0mph /  8km/h 11.0mph /  17.7km/h 58% 0.00in /  0mm
12:04 76.6 °F /  24.8 °C 60.2 °F /  15.7 °C 29.75in /  1007.3hPa SW 6.0mph /  9.7km/h 9.0mph /  14.5km/h 57% 0.00in /  0mm
12:09 76.6 °F /  24.8 °C 59.2 °F /  15.1 °C 29.75in /  1007.3hPa SW 7.0mph /  11.3km/h 17.0mph /  27.4km/h 55% 0.00in /  0mm
12:14 75.7 °F /  24.3 °C 59.9 °F /  15.5 °C 29.75in /  1007.3hPa WNW 6.0mph /  9.7km/h 11.0mph /  17.7km/h 58% 0.00in /  0mm
12:19 75.3 °F /  24.1 °C 59.5 °F /  15.3 °C 29.75in /  1007.3hPa WSW 7.0mph /  11.3km/h 11.0mph /  17.7km/h 58% 0.00in /  0mm
12:24 75.7 °F /  24.3 °C 59.9 °F /  15.5 °C 29.76in /  1007.7hPa WSW 7.0mph /  11.3km/h 12.0mph /  19.3km/h 58% 0.00in /  0mm
12:29 75.7 °F /  24.3 °C 59.4 °F /  15.2 °C 29.76in /  1007.7hPa SW 6.0mph /  9.7km/h 11.0mph /  17.7km/h 57% 0.00in /  0mm
12:34 76.5 °F /  24.7 °C 60.1 °F /  15.6 °C 29.76in /  1007.7hPa SSW 7.0mph /  11.3km/h 13.0mph /  20.9km/h 57% 0.00in /  0mm
12:39 77.2 °F /  25.1 °C 60.8 °F /  16 °C 29.76in /  1007.7hPa WSW 2.0mph /  3.2km/h 10.0mph /  16.1km/h 57% 0.00in /  0mm
12:44 76.7 °F /  24.8 °C 59.8 °F /  15.4 °C 29.75in /  1007.3hPa SSW 5.0mph /  8km/h 12.0mph /  19.3km/h 56% 0.00in /  0mm
12:49 77.4 °F /  25.2 °C 60.0 °F /  15.6 °C 29.75in /  1007.3hPa SW 6.0mph /  9.7km/h 12.0mph /  19.3km/h 55% 0.00in /  0mm
12:54 77.8 °F /  25.4 °C 59.3 °F /  15.2 °C 29.75in /  1007.3hPa WSW 5.0mph /  8km/h 10.0mph /  16.1km/h 53% 0.00in /  0mm
12:59 78.2 °F /  25.7 °C 60.7 °F /  15.9 °C 29.75in /  1007.3hPa West 5.0mph /  8km/h 12.0mph /  19.3km/h 55% 0.00in /  0mm
13:04 77.2 °F /  25.1 °C 59.3 °F /  15.2 °C 29.75in /  1007.3hPa WSW 6.0mph /  9.7km/h 13.0mph /  20.9km/h 54% 0.00in /  0mm
13:09 77.7 °F /  25.4 °C 59.2 °F /  15.1 °C 29.75in /  1007.3hPa WSW 6.0mph /  9.7km/h 13.0mph /  20.9km/h 53% 0.00in /  0mm
13:14 77.5 °F /  25.3 °C 59.5 °F /  15.3 °C 29.75in /  1007.3hPa SSW 8.0mph /  12.9km/h 12.0mph /  19.3km/h 54% 0.00in /  0mm
13:19 76.7 °F /  24.8 °C 59.3 °F /  15.2 °C 29.75in /  1007.3hPa WSW 7.0mph /  11.3km/h 16.0mph /  25.7km/h 55% 0.00in /  0mm
13:24 77.1 °F /  25.1 °C 59.7 °F /  15.4 °C 29.74in /  1007hPa West 6.0mph /  9.7km/h 13.0mph /  20.9km/h 55% 0.00in /  0mm
13:29 77.3 °F /  25.2 °C 59.9 °F /  15.5 °C 29.74in /  1007hPa West 8.0mph /  12.9km/h 11.0mph /  17.7km/h 55% 0.00in /  0mm
13:34 77.2 °F /  25.1 °C 59.3 °F /  15.2 °C 29.74in /  1007hPa SSW 4.0mph /  6.4km/h 10.0mph /  16.1km/h 54% 0.00in /  0mm
13:39 77.1 °F /  25.1 °C 59.2 °F /  15.1 °C 29.74in /  1007hPa West 4.0mph /  6.4km/h 13.0mph /  20.9km/h 54% 0.00in /  0mm
13:44 77.4 °F /  25.2 °C 61.0 °F /  16.1 °C 29.74in /  1007hPa WSW 6.0mph /  9.7km/h 13.0mph /  20.9km/h 57% 0.00in /  0mm
13:49 77.6 °F /  25.3 °C 60.2 °F /  15.7 °C 29.73in /  1006.7hPa WSW 6.0mph /  9.7km/h 13.0mph /  20.9km/h 55% 0.00in /  0mm
13:54 77.7 °F /  25.4 °C 60.2 °F /  15.7 °C 29.74in /  1007hPa WSW 7.0mph /  11.3km/h 13.0mph /  20.9km/h 55% 0.00in /  0mm
13:59 78.2 °F /  25.7 °C 63.6 °F /  17.6 °C 29.73in /  1006.7hPa WSW 6.0mph /  9.7km/h 11.0mph /  17.7km/h 61% 0.00in /  0mm
14:04 78.5 °F /  25.8 °C 61.0 °F /  16.1 °C 29.73in /  1006.7hPa WSW 2.0mph /  3.2km/h 9.0mph /  14.5km/h 55% 0.00in /  0mm
14:09 78.8 °F /  26 °C 60.7 °F /  15.9 °C 29.73in /  1006.7hPa WNW 5.0mph /  8km/h 11.0mph /  17.7km/h 54% 0.00in /  0mm
14:14 78.0 °F /  25.6 °C 58.9 °F /  14.9 °C 29.73in /  1006.7hPa WSW 4.0mph /  6.4km/h 10.0mph /  16.1km/h 52% 0.00in /  0mm
14:19 77.5 °F /  25.3 °C 60.6 °F /  15.9 °C 29.73in /  1006.7hPa WSW 6.0mph /  9.7km/h 13.0mph /  20.9km/h 56% 0.00in /  0mm
14:24 77.6 °F /  25.3 °C 61.2 °F /  16.2 °C 29.73in /  1006.7hPa SW 6.0mph /  9.7km/h 14.0mph /  22.5km/h 57% 0.00in /  0mm
14:29 78.0 °F /  25.6 °C 61.5 °F /  16.4 °C 29.72in /  1006.3hPa West 4.0mph /  6.4km/h 13.0mph /  20.9km/h 57% 0.00in /  0mm
14:34 77.9 °F /  25.5 °C 59.9 °F /  15.5 °C 29.72in /  1006.3hPa West 8.0mph /  12.9km/h 12.0mph /  19.3km/h 54% 0.00in /  0mm
14:39 77.8 °F /  25.4 °C 60.8 °F /  16 °C 29.72in /  1006.3hPa SSW 6.0mph /  9.7km/h 13.0mph /  20.9km/h 56% 0.00in /  0mm
14:44 78.7 °F /  25.9 °C 63.2 °F /  17.3 °C 29.72in /  1006.3hPa WSW 6.0mph /  9.7km/h 13.0mph /  20.9km/h 59% 0.00in /  0mm
14:49 78.7 °F /  25.9 °C 62.2 °F /  16.8 °C 29.72in /  1006.3hPa WSW 6.0mph /  9.7km/h 11.0mph /  17.7km/h 57% 0.00in /  0mm
14:54 76.7 °F /  24.8 °C 59.3 °F /  15.2 °C 29.71in /  1006hPa West 6.0mph /  9.7km/h 16.0mph /  25.7km/h 55% 0.00in /  0mm
14:59 75.7 °F /  24.3 °C 59.9 °F /  15.5 °C 29.72in /  1006.3hPa WSW 7.0mph /  11.3km/h 16.0mph /  25.7km/h 58% 0.00in /  0mm
15:04 75.4 °F /  24.1 °C 60.5 °F /  15.8 °C 29.72in /  1006.3hPa WSW 8.0mph /  12.9km/h 11.0mph /  17.7km/h 60% 0.00in /  0mm
15:09 75.5 °F /  24.2 °C 60.2 °F /  15.7 °C 29.72in /  1006.3hPa WSW 9.0mph /  14.5km/h 12.0mph /  19.3km/h 59% 0.00in /  0mm
15:14 74.9 °F /  23.8 °C 59.1 °F /  15.1 °C 29.72in /  1006.3hPa WSW 6.0mph /  9.7km/h 13.0mph /  20.9km/h 58% 0.00in /  0mm
15:19 74.2 °F /  23.4 °C 60.3 °F /  15.7 °C 29.72in /  1006.3hPa WSW 6.0mph /  9.7km/h 13.0mph /  20.9km/h 62% 0.00in /  0mm
15:24 73.7 °F /  23.2 °C 59.9 °F /  15.5 °C 29.72in /  1006.3hPa WSW 6.0mph /  9.7km/h 13.0mph /  20.9km/h 62% 0.00in /  0mm
15:29 73.2 °F /  22.9 °C 59.8 °F /  15.4 °C 29.72in /  1006.3hPa SW 7.0mph /  11.3km/h 15.0mph /  24.1km/h 63% 0.00in /  0mm
15:34 72.8 °F /  22.7 °C 60.3 °F /  15.7 °C 29.72in /  1006.3hPa SW 7.0mph /  11.3km/h 15.0mph /  24.1km/h 65% 0.00in /  0mm
15:39 72.6 °F /  22.6 °C 60.2 °F /  15.7 °C 29.72in /  1006.3hPa SW 6.0mph /  9.7km/h 12.0mph /  19.3km/h 65% 0.00in /  0mm
15:44 72.5 °F /  22.5 °C 60.5 °F /  15.8 °C 29.72in /  1006.3hPa WSW 5.0mph /  8km/h 11.0mph /  17.7km/h 66% 0.00in /  0mm
15:49 72.4 °F /  22.4 °C 60.0 °F /  15.6 °C 29.72in /  1006.3hPa WSW 3.0mph /  4.8km/h 10.0mph /  16.1km/h 65% 0.00in /  0mm
15:54 72.3 °F /  22.4 °C 60.7 °F /  15.9 °C 29.71in /  1006hPa West 1.0mph /  1.6km/h 8.0mph /  12.9km/h 67% 0.00in /  0mm
15:59 72.0 °F /  22.2 °C 60.4 °F /  15.8 °C 29.71in /  1006hPa SSW 7.0mph /  11.3km/h 11.0mph /  17.7km/h 67% 0.00in /  0mm
16:04 72.0 °F /  22.2 °C 60.4 °F /  15.8 °C 29.71in /  1006hPa WSW 3.0mph /  4.8km/h 10.0mph /  16.1km/h 67% 0.00in /  0mm
16:09 72.0 °F /  22.2 °C 60.4 °F /  15.8 °C 29.71in /  1006hPa WSW 7.0mph /  11.3km/h 11.0mph /  17.7km/h 67% 0.00in /  0mm
16:14 71.7 °F /  22.1 °C 60.2 °F /  15.7 °C 29.72in /  1006.3hPa SW 6.0mph /  9.7km/h 14.0mph /  22.5km/h 67% 0.00in /  0mm
16:19 71.7 °F /  22.1 °C 60.6 °F /  15.9 °C 29.72in /  1006.3hPa SW 6.0mph /  9.7km/h 14.0mph /  22.5km/h 68% 0.00in /  0mm
16:24 71.7 °F /  22.1 °C 60.6 °F /  15.9 °C 29.72in /  1006.3hPa SW 6.0mph /  9.7km/h 16.0mph /  25.7km/h 68% 0.00in /  0mm
16:29 71.7 °F /  22.1 °C 61.0 °F /  16.1 °C 29.72in /  1006.3hPa SW 7.0mph /  11.3km/h 16.0mph /  25.7km/h 69% 0.00in /  0mm
16:34 72.2 °F /  22.3 °C 61.5 °F /  16.4 °C 29.72in /  1006.3hPa SW 7.0mph /  11.3km/h 14.0mph /  22.5km/h 69% 0.00in /  0mm
16:39 72.2 °F /  22.3 °C 61.0 °F /  16.1 °C 29.72in /  1006.3hPa SW 6.0mph /  9.7km/h 15.0mph /  24.1km/h 68% 0.00in /  0mm
16:44 72.5 °F /  22.5 °C 61.3 °F /  16.3 °C 29.72in /  1006.3hPa SW 7.0mph /  11.3km/h 15.0mph /  24.1km/h 68% 0.00in /  0mm
16:49 73.0 °F /  22.8 °C 61.0 °F /  16.1 °C 29.72in /  1006.3hPa SW 6.0mph /  9.7km/h 14.0mph /  22.5km/h 66% 0.00in /  0mm
16:54 73.9 °F /  23.3 °C 61.0 °F /  16.1 °C 29.71in /  1006hPa SW 7.0mph /  11.3km/h 15.0mph /  24.1km/h 64% 0.00in /  0mm
16:59 74.3 °F /  23.5 °C 61.8 °F /  16.6 °C 29.71in /  1006hPa West 13.0mph /  20.9km/h 14.0mph /  22.5km/h 65% 0.00in /  0mm
17:04 74.0 °F /  23.3 °C 61.5 °F /  16.4 °C 29.71in /  1006hPa WSW 8.0mph /  12.9km/h 15.0mph /  24.1km/h 65% 0.00in /  0mm
17:09 74.3 °F /  23.5 °C 62.2 °F /  16.8 °C 29.71in /  1006hPa WSW 5.0mph /  8km/h 14.0mph /  22.5km/h 66% 0.00in /  0mm
17:14 74.9 °F /  23.8 °C 61.0 °F /  16.1 °C 29.71in /  1006hPa WSW 6.0mph /  9.7km/h 14.0mph /  22.5km/h 62% 0.00in /  0mm
17:19 75.3 °F /  24.1 °C 61.4 °F /  16.3 °C 29.71in /  1006hPa WSW 6.0mph /  9.7km/h 13.0mph /  20.9km/h 62% 0.00in /  0mm
17:24 75.3 °F /  24.1 °C 61.4 °F /  16.3 °C 29.71in /  1006hPa WSW 5.0mph /  8km/h 15.0mph /  24.1km/h 62% 0.00in /  0mm
17:29 75.1 °F /  23.9 °C 61.6 °F /  16.4 °C 29.71in /  1006hPa WSW 3.0mph /  4.8km/h 13.0mph /  20.9km/h 63% 0.00in /  0mm
17:34 75.3 °F /  24.1 °C 61.4 °F /  16.3 °C 29.72in /  1006.3hPa SSW 5.0mph /  8km/h 12.0mph /  19.3km/h 62% 0.00in /  0mm
17:39 74.7 °F /  23.7 °C 60.4 °F /  15.8 °C 29.72in /  1006.3hPa West 5.0mph /  8km/h 20.0mph /  32.2km/h 61% 0.00in /  0mm
17:44 74.7 °F /  23.7 °C 60.8 °F /  16 °C 29.72in /  1006.3hPa WSW 8.0mph /  12.9km/h 20.0mph /  32.2km/h 62% 0.00in /  0mm
17:49 74.3 °F /  23.5 °C 60.9 °F /  16.1 °C 29.72in /  1006.3hPa WSW 8.0mph /  12.9km/h 16.0mph /  25.7km/h 63% 0.00in /  0mm
17:54 73.5 °F /  23.1 °C 61.0 °F /  16.1 °C 29.72in /  1006.3hPa WSW 8.0mph /  12.9km/h 16.0mph /  25.7km/h 65% 0.00in /  0mm
17:59 73.0 °F /  22.8 °C 61.0 °F /  16.1 °C 29.72in /  1006.3hPa WSW 8.0mph /  12.9km/h 15.0mph /  24.1km/h 66% 0.00in /  0mm
18:04 73.4 °F /  23 °C 60.9 °F /  16.1 °C 29.71in /  1006hPa WSW 8.0mph /  12.9km/h 16.0mph /  25.7km/h 65% 0.00in /  0mm
18:09 73.9 °F /  23.3 °C 60.5 °F /  15.8 °C 29.72in /  1006.3hPa SW 10.0mph /  16.1km/h 13.0mph /  20.9km/h 63% 0.00in /  0mm
18:14 73.9 °F /  23.3 °C 60.1 °F /  15.6 °C 29.71in /  1006hPa West 5.0mph /  8km/h 17.0mph /  27.4km/h 62% 0.00in /  0mm
18:19 73.9 °F /  23.3 °C 59.1 °F /  15.1 °C 29.71in /  1006hPa SW 10.0mph /  16.1km/h 17.0mph /  27.4km/h 60% 0.00in /  0mm
18:24 73.9 °F /  23.3 °C 59.6 °F /  15.3 °C 29.71in /  1006hPa West 7.0mph /  11.3km/h 15.0mph /  24.1km/h 61% 0.00in /  0mm
18:29 74.0 °F /  23.3 °C 59.7 °F /  15.4 °C 29.72in /  1006.3hPa SW 7.0mph /  11.3km/h 17.0mph /  27.4km/h 61% 0.00in /  0mm
18:34 73.9 °F /  23.3 °C 60.1 °F /  15.6 °C 29.72in /  1006.3hPa WSW 8.0mph /  12.9km/h 22.0mph /  35.4km/h 62% 0.00in /  0mm
18:39 73.6 °F /  23.1 °C 60.2 °F /  15.7 °C 29.72in /  1006.3hPa WNW 4.0mph /  6.4km/h 15.0mph /  24.1km/h 63% 0.00in /  0mm
18:44 73.4 °F /  23 °C 60.5 °F /  15.8 °C 29.72in /  1006.3hPa WSW 7.0mph /  11.3km/h 15.0mph /  24.1km/h 64% 0.00in /  0mm
18:49 73.6 °F /  23.1 °C 61.5 °F /  16.4 °C 29.73in /  1006.7hPa WSW 7.0mph /  11.3km/h 14.0mph /  22.5km/h 66% 0.00in /  0mm
18:54 73.6 °F /  23.1 °C 60.7 °F /  15.9 °C 29.73in /  1006.7hPa WSW 7.0mph /  11.3km/h 16.0mph /  25.7km/h 64% 0.00in /  0mm
18:59 73.5 °F /  23.1 °C 60.6 °F /  15.9 °C 29.73in /  1006.7hPa WSW 7.0mph /  11.3km/h 16.0mph /  25.7km/h 64% 0.00in /  0mm
19:04 73.4 °F /  23 °C 60.0 °F /  15.6 °C 29.73in /  1006.7hPa WSW 8.0mph /  12.9km/h 15.0mph /  24.1km/h 63% 0.00in /  0mm
19:09 72.9 °F /  22.7 °C 60.0 °F /  15.6 °C 29.72in /  1006.3hPa SW 8.0mph /  12.9km/h 16.0mph /  25.7km/h 64% 0.00in /  0mm
19:14 72.6 °F /  22.6 °C 60.2 °F /  15.7 °C 29.73in /  1006.7hPa SW 8.0mph /  12.9km/h 16.0mph /  25.7km/h 65% 0.00in /  0mm
19:19 72.2 °F /  22.3 °C 60.2 °F /  15.7 °C 29.73in /  1006.7hPa SSW 7.0mph /  11.3km/h 16.0mph /  25.7km/h 66% 0.00in /  0mm
19:24 71.7 °F /  22.1 °C 60.2 °F /  15.7 °C 29.73in /  1006.7hPa SW 9.0mph /  14.5km/h 13.0mph /  20.9km/h 67% 0.00in /  0mm
19:29 71.5 °F /  21.9 °C 60.4 °F /  15.8 °C 29.73in /  1006.7hPa WSW 6.0mph /  9.7km/h 14.0mph /  22.5km/h 68% 0.00in /  0mm
19:34 71.5 °F /  21.9 °C 60.4 °F /  15.8 °C 29.73in /  1006.7hPa WSW 7.0mph /  11.3km/h 16.0mph /  25.7km/h 68% 0.00in /  0mm
19:39 71.4 °F /  21.9 °C 60.3 °F /  15.7 °C 29.73in /  1006.7hPa SW 6.0mph /  9.7km/h 17.0mph /  27.4km/h 68% 0.00in /  0mm
19:44 71.4 °F /  21.9 °C 60.3 °F /  15.7 °C 29.74in /  1007hPa WSW 7.0mph /  11.3km/h 17.0mph /  27.4km/h 68% 0.00in /  0mm
19:49 71.5 °F /  21.9 °C 60.0 °F /  15.6 °C 29.74in /  1007hPa SW 6.0mph /  9.7km/h 13.0mph /  20.9km/h 67% 0.00in /  0mm
19:54 71.6 °F /  22 °C 59.6 °F /  15.3 °C 29.74in /  1007hPa SW 6.0mph /  9.7km/h 17.0mph /  27.4km/h 66% 0.00in /  0mm
19:59 71.7 °F /  22.1 °C 59.7 °F /  15.4 °C 29.74in /  1007hPa WSW 8.0mph /  12.9km/h 18.0mph /  29km/h 66% 0.00in /  0mm
20:04 71.6 °F /  22 °C 59.6 °F /  15.3 °C 29.74in /  1007hPa WSW 14.0mph /  22.5km/h 15.0mph /  24.1km/h 66% 0.00in /  0mm
20:09 71.4 °F /  21.9 °C 59.4 °F /  15.2 °C 29.74in /  1007hPa West 4.0mph /  6.4km/h 16.0mph /  25.7km/h 66% 0.00in /  0mm
20:14 71.1 °F /  21.7 °C 59.6 °F /  15.3 °C 29.74in /  1007hPa WSW 7.0mph /  11.3km/h 16.0mph /  25.7km/h 67% 0.00in /  0mm
20:19 70.8 °F /  21.6 °C 59.7 °F /  15.4 °C 29.74in /  1007hPa WSW 7.0mph /  11.3km/h 12.0mph /  19.3km/h 68% 0.00in /  0mm
20:24 70.6 °F /  21.4 °C 59.9 °F /  15.5 °C 29.74in /  1007hPa WSW 6.0mph /  9.7km/h 12.0mph /  19.3km/h 69% 0.00in /  0mm
20:29 70.4 °F /  21.3 °C 60.5 °F /  15.8 °C 29.74in /  1007hPa WSW 6.0mph /  9.7km/h 12.0mph /  19.3km/h 71% 0.00in /  0mm
20:34 70.1 °F /  21.2 °C 60.7 °F /  15.9 °C 29.74in /  1007hPa WSW 5.0mph /  8km/h 11.0mph /  17.7km/h 72% 0.00in /  0mm
20:39 69.8 °F /  21 °C 60.8 °F /  16 °C 29.73in /  1006.7hPa SW 5.0mph /  8km/h 8.0mph /  12.9km/h 73% 0.00in /  0mm
20:44 69.6 °F /  20.9 °C 60.9 °F /  16.1 °C 29.73in /  1006.7hPa WSW 5.0mph /  8km/h 8.0mph /  12.9km/h 74% 0.00in /  0mm
20:49 69.4 °F /  20.8 °C 61.1 °F /  16.2 °C 29.73in /  1006.7hPa SW 1.0mph /  1.6km/h 7.0mph /  11.3km/h 75% 0.00in /  0mm
20:54 69.3 °F /  20.7 °C 61.0 °F /  16.1 °C 29.73in /  1006.7hPa SW 2.0mph /  3.2km/h 9.0mph /  14.5km/h 75% 0.00in /  0mm
20:59 69.1 °F /  20.6 °C 61.2 °F /  16.2 °C 29.73in /  1006.7hPa SW 3.0mph /  4.8km/h 5.0mph /  8km/h 76% 0.00in /  0mm
21:04 68.8 °F /  20.4 °C 61.3 °F /  16.3 °C 29.74in /  1007hPa WNW 5.0mph /  8km/h 6.0mph /  9.7km/h 77% 0.00in /  0mm
21:09 68.7 °F /  20.4 °C 61.2 °F /  16.2 °C 29.74in /  1007hPa South 5.0mph /  8km/h 6.0mph /  9.7km/h 77% 0.00in /  0mm
21:14 68.7 °F /  20.4 °C 61.2 °F /  16.2 °C 29.74in /  1007hPa SW 3.0mph /  4.8km/h 6.0mph /  9.7km/h 77% 0.00in /  0mm
21:19 68.6 °F /  20.3 °C 61.5 °F /  16.4 °C 29.74in /  1007hPa SW 3.0mph /  4.8km/h 8.0mph /  12.9km/h 78% 0.00in /  0mm
21:24 68.5 °F /  20.3 °C 61.4 °F /  16.3 °C 29.74in /  1007hPa SW 3.0mph /  4.8km/h 8.0mph /  12.9km/h 78% 0.00in /  0mm
21:29 68.3 °F /  20.2 °C 61.5 °F /  16.4 °C 29.74in /  1007hPa SW 3.0mph /  4.8km/h 7.0mph /  11.3km/h 79% 0.00in /  0mm
21:34 68.1 °F /  20.1 °C 61.3 °F /  16.3 °C 29.75in /  1007.3hPa SW 2.0mph /  3.2km/h 4.0mph /  6.4km/h 79% 0.00in /  0mm
21:39 68.0 °F /  20 °C 61.6 °F /  16.4 °C 29.75in /  1007.3hPa SW 2.0mph /  3.2km/h 4.0mph /  6.4km/h 80% 0.00in /  0mm
21:44 67.9 °F /  19.9 °C 61.9 °F /  16.6 °C 29.75in /  1007.3hPa SSW 3.0mph /  4.8km/h 6.0mph /  9.7km/h 81% 0.00in /  0mm
21:49 67.9 °F /  19.9 °C 61.9 °F /  16.6 °C 29.75in /  1007.3hPa SW 2.0mph /  3.2km/h 7.0mph /  11.3km/h 81% 0.00in /  0mm
21:54 67.9 °F /  19.9 °C 61.9 °F /  16.6 °C 29.75in /  1007.3hPa SW 3.0mph /  4.8km/h 7.0mph /  11.3km/h 81% 0.00in /  0mm
21:59 68.0 °F /  20 °C 61.9 °F /  16.6 °C 29.76in /  1007.7hPa SW 3.0mph /  4.8km/h 10.0mph /  16.1km/h 81% 0.00in /  0mm
22:04 68.1 °F /  20.1 °C 62.0 °F /  16.7 °C 29.75in /  1007.3hPa SSW 6.0mph /  9.7km/h 12.0mph /  19.3km/h 81% 0.00in /  0mm
22:09 68.2 °F /  20.1 °C 62.1 °F /  16.7 °C 29.75in /  1007.3hPa SSW 2.0mph /  3.2km/h 9.0mph /  14.5km/h 81% 0.00in /  0mm
22:14 68.1 °F /  20.1 °C 62.0 °F /  16.7 °C 29.76in /  1007.7hPa SW 6.0mph /  9.7km/h 8.0mph /  12.9km/h 81% 0.00in /  0mm
22:19 68.2 °F /  20.1 °C 61.8 °F /  16.6 °C 29.76in /  1007.7hPa SW 4.0mph /  6.4km/h 12.0mph /  19.3km/h 80% 0.00in /  0mm
22:24 68.3 °F /  20.2 °C 61.9 °F /  16.6 °C 29.76in /  1007.7hPa SW 5.0mph /  8km/h 12.0mph /  19.3km/h 80% 0.00in /  0mm
22:29 68.5 °F /  20.3 °C 61.7 °F /  16.5 °C 29.76in /  1007.7hPa SW 4.0mph /  6.4km/h 10.0mph /  16.1km/h 79% 0.00in /  0mm
22:34 68.7 °F /  20.4 °C 61.9 °F /  16.6 °C 29.76in /  1007.7hPa SW 6.0mph /  9.7km/h 11.0mph /  17.7km/h 79% 0.00in /  0mm
22:39 68.9 °F /  20.5 °C 62.1 °F /  16.7 °C 29.76in /  1007.7hPa SW 5.0mph /  8km/h 15.0mph /  24.1km/h 79% 0.00in /  0mm
22:44 68.8 °F /  20.4 °C 61.7 °F /  16.5 °C 29.76in /  1007.7hPa WSW 5.0mph /  8km/h 12.0mph /  19.3km/h 78% 0.00in /  0mm
22:49 68.7 °F /  20.4 °C 61.6 °F /  16.4 °C 29.76in /  1007.7hPa SW 6.0mph /  9.7km/h 12.0mph /  19.3km/h 78% 0.00in /  0mm
22:54 68.5 °F /  20.3 °C 61.0 °F /  16.1 °C 29.76in /  1007.7hPa SW 6.0mph /  9.7km/h 11.0mph /  17.7km/h 77% 0.00in /  0mm
22:59 68.4 °F /  20.2 °C 60.9 °F /  16.1 °C 29.76in /  1007.7hPa SW 6.0mph /  9.7km/h 12.0mph /  19.3km/h 77% 0.00in /  0mm
23:04 68.3 °F /  20.2 °C 60.8 °F /  16 °C 29.76in /  1007.7hPa SW 5.0mph /  8km/h 12.0mph /  19.3km/h 77% 0.00in /  0mm
23:09 68.2 °F /  20.1 °C 60.3 °F /  15.7 °C 29.77in /  1008hPa SW 5.0mph /  8km/h 16.0mph /  25.7km/h 76% 0.00in /  0mm
23:14 68.1 °F /  20.1 °C 59.9 °F /  15.5 °C 29.77in /  1008hPa SW 4.0mph /  6.4km/h 11.0mph /  17.7km/h 75% 0.00in /  0mm
23:19 68.1 °F /  20.1 °C 59.9 °F /  15.5 °C 29.76in /  1007.7hPa SW 5.0mph /  8km/h 11.0mph /  17.7km/h 75% 0.00in /  0mm
23:24 67.9 °F /  19.9 °C 59.3 °F /  15.2 °C 29.76in /  1007.7hPa SW 4.0mph /  6.4km/h 9.0mph /  14.5km/h 74% 0.00in /  0mm
23:29 67.7 °F /  19.8 °C 59.1 °F /  15.1 °C 29.76in /  1007.7hPa West 6.0mph /  9.7km/h 16.0mph /  25.7km/h 74% 0.00in /  0mm
23:34 67.3 °F /  19.6 °C 59.1 °F /  15.1 °C 29.77in /  1008hPa WSW 4.0mph /  6.4km/h 13.0mph /  20.9km/h 75% 0.00in /  0mm
23:39 67.1 °F /  19.5 °C 58.9 °F /  14.9 °C 29.77in /  1008hPa SW 5.0mph /  8km/h 13.0mph /  20.9km/h 75% 0.00in /  0mm
23:44 66.8 °F /  19.3 °C 59.0 °F /  15 °C 29.77in /  1008hPa WSW 10.0mph /  16.1km/h 12.0mph /  19.3km/h 76% 0.00in /  0mm
23:49 66.7 °F /  19.3 °C 58.9 °F /  14.9 °C 29.78in /  1008.4hPa SW 6.0mph /  9.7km/h 15.0mph /  24.1km/h 76% 0.00in /  0mm
23:54 66.6 °F /  19.2 °C 58.8 °F /  14.9 °C 29.78in /  1008.4hPa SW 7.0mph /  11.3km/h 17.0mph /  27.4km/h 76% 0.00in /  0mm
23:59 66.6 °F /  19.2 °C 58.8 °F /  14.9 °C 29.78in /  1008.4hPa SW 6.0mph /  9.7km/h 17.0mph /  27.4km/h 76% 0.00in /  0mm
Buffalo, New York, USA
Compliments of Weather Underground - 2.5 mb